Time;durP1;ratioP1;P1;durP2;ratioP2;P2;SDS_P1;SDS_P2;PMS_P1;PMS_P2;Temp;Humidity;BMP_temperature;BMP_pressure;BME280_temperature;BME280_humidity;BME280_pressure;Samples;Min_cycle;Max_cycle;Signal;HPM_P1;HPM_P2
2024/03/23 00:02:14;;;;;;;7.03;3.37;;;9.10;99.90;;;;;;4982611;28;20034;-86
2024/03/23 00:04:41;;;;;;;10.97;4.57;;;9.10;99.90;;;;;;4983757;28;20090;-85
2024/03/23 00:07:07;;;;;;;8.30;4.40;;;9.00;99.90;;;;;;4983552;28;20030;-85
2024/03/23 00:09:34;;;;;;;9.50;4.90;;;9.00;99.90;;;;;;4993492;28;20045;-85
2024/03/23 00:12:01;;;;;;;21.40;7.63;;;8.90;99.90;;;;;;4985668;28;20133;-84
2024/03/23 00:14:28;;;;;;;17.33;8.03;;;8.90;99.90;;;;;;4984178;28;20054;-85
2024/03/23 00:16:55;;;;;;;21.63;8.33;;;8.80;99.90;;;;;;4983453;28;20080;-85
2024/03/23 00:19:21;;;;;;;14.77;8.60;;;8.80;99.90;;;;;;4983725;28;20038;-85
2024/03/23 00:21:48;;;;;;;17.03;6.97;;;8.80;99.90;;;;;;4983138;28;20030;-84
2024/03/23 00:24:14;;;;;;;15.23;7.67;;;8.70;99.90;;;;;;4982510;28;20474;-85
2024/03/23 00:26:41;;;;;;;14.23;5.30;;;8.70;99.90;;;;;;4986688;28;20096;-85
2024/03/23 00:29:07;;;;;;;5.83;2.90;;;8.70;99.90;;;;;;4988121;28;20030;-85
2024/03/23 00:31:34;;;;;;;10.73;3.23;;;8.60;99.90;;;;;;4989333;28;20033;-84
2024/03/23 00:34:00;;;;;;;6.77;2.90;;;8.60;99.90;;;;;;4987070;28;20030;-85
2024/03/23 00:36:27;;;;;;;7.33;2.90;;;8.50;99.90;;;;;;4986225;28;20026;-84
2024/03/23 00:38:53;;;;;;;6.97;3.13;;;8.40;99.90;;;;;;4988144;28;20041;-84
2024/03/23 00:41:20;;;;;;;12.07;2.87;;;8.30;99.90;;;;;;4997704;28;20038;-85
2024/03/23 00:43:46;;;;;;;5.83;2.80;;;8.20;99.90;;;;;;4987537;28;20022;-85
2024/03/23 00:46:13;;;;;;;7.87;3.10;;;8.10;99.90;;;;;;4987132;28;20029;-86
2024/03/23 00:48:39;;;;;;;10.03;3.77;;;8.10;99.90;;;;;;4987320;28;20076;-85
2024/03/23 00:51:06;;;;;;;8.23;3.00;;;8.10;99.90;;;;;;4987709;28;20026;-85
2024/03/23 00:53:33;;;;;;;5.43;2.90;;;8.00;99.90;;;;;;4987269;28;20424;-85
2024/03/23 00:55:59;;;;;;;4.40;3.00;;;8.00;99.90;;;;;;4987076;28;20031;-85
2024/03/23 00:58:24;;;;;;;4.63;3.10;;;8.00;99.90;;;;;;4987486;28;20133;-85
2024/03/23 01:00:50;;;;;;;7.40;2.90;;;8.10;99.90;;;;;;4987639;28;20031;-85
2024/03/23 01:03:15;;;;;;;5.90;2.80;;;8.10;99.90;;;;;;4988589;28;20140;-85
2024/03/23 01:05:41;;;;;;;5.57;2.57;;;8.10;99.90;;;;;;5003328;28;20111;-85
2024/03/23 01:08:06;;;;;;;5.47;2.50;;;8.10;99.90;;;;;;4988002;28;20034;-85
2024/03/23 01:10:32;;;;;;;10.47;2.60;;;8.20;99.90;;;;;;4987434;28;20049;-84
2024/03/23 01:12:57;;;;;;;6.07;2.47;;;8.20;99.90;;;;;;4988022;28;20065;-85
2024/03/23 01:15:23;;;;;;;4.90;2.87;;;8.30;99.90;;;;;;4985869;28;20175;-85
2024/03/23 01:17:48;;;;;;;3.73;2.43;;;8.40;99.90;;;;;;4986699;28;20045;-86
2024/03/23 01:20:14;;;;;;;4.33;2.67;;;8.50;99.90;;;;;;4986060;28;20030;-85
2024/03/23 01:22:40;;;;;;;4.60;2.60;;;8.60;99.90;;;;;;4986866;28;20034;-85
2024/03/23 01:25:06;;;;;;;4.10;2.03;;;8.70;99.90;;;;;;4985314;28;20026;-85
2024/03/23 01:27:31;;;;;;;3.30;2.20;;;8.80;99.90;;;;;;4987058;28;20104;-85
2024/03/23 01:29:57;;;;;;;3.70;2.47;;;8.90;99.90;;;;;;4985608;28;20038;-85
2024/03/23 01:32:22;;;;;;;4.17;2.60;;;8.90;99.90;;;;;;4985886;28;20193;-85
2024/03/23 01:34:48;;;;;;;6.17;2.10;;;8.90;99.90;;;;;;4984827;28;20026;-85
2024/03/23 01:37:13;;;;;;;5.30;2.37;;;9.00;99.90;;;;;;4985569;28;20722;-85
2024/03/23 01:39:39;;;;;;;4.93;2.20;;;9.00;99.90;;;;;;4986310;28;20045;-85
2024/03/23 01:42:04;;;;;;;4.73;2.30;;;9.00;99.90;;;;;;4985785;28;20038;-85
2024/03/23 01:44:30;;;;;;;6.60;2.13;;;9.00;99.90;;;;;;4986252;28;20214;-85
2024/03/23 01:46:55;;;;;;;3.07;2.03;;;9.10;99.90;;;;;;4985396;28;20045;-85
2024/03/23 01:49:21;;;;;;;7.00;2.47;;;9.10;99.90;;;;;;4985908;28;20065;-85
2024/03/23 01:51:47;;;;;;;3.50;2.00;;;9.10;99.90;;;;;;4987390;28;20161;-85
2024/03/23 01:54:12;;;;;;;6.07;2.07;;;9.10;99.90;;;;;;5001588;28;20034;-85
2024/03/23 01:56:38;;;;;;;7.83;2.73;;;9.10;99.90;;;;;;4986097;28;20026;-85
2024/03/23 01:59:07;;;;;;;5.37;2.40;;;9.10;99.90;;;;;;4986276;28;20031;-85
2024/03/23 02:01:35;;;;;;;3.13;2.00;;;9.10;99.90;;;;;;4986163;28;20628;-85
2024/03/23 02:04:01;;;;;;;6.10;2.20;;;9.10;99.90;;;;;;4986647;28;20034;-85
2024/03/23 02:06:27;;;;;;;6.07;2.17;;;9.10;99.90;;;;;;4985343;28;20034;-85
2024/03/23 02:08:54;;;;;;;8.20;1.90;;;9.10;99.90;;;;;;4983680;28;20805;-85
2024/03/23 02:11:20;;;;;;;3.27;2.13;;;9.10;99.90;;;;;;4986543;28;20066;-85
2024/03/23 02:13:45;;;;;;;5.97;2.80;;;9.10;99.90;;;;;;4984782;28;20391;-85
2024/03/23 02:16:11;;;;;;;5.27;2.00;;;9.10;99.90;;;;;;4984665;28;20161;-85
2024/03/23 02:18:36;;;;;;;4.30;2.10;;;9.10;99.90;;;;;;4986458;28;20065;-85
2024/03/23 02:21:02;;;;;;;6.30;2.20;;;9.10;99.90;;;;;;4986425;28;20526;-85
2024/03/23 02:23:28;;;;;;;5.23;2.90;;;9.10;99.90;;;;;;4993708;28;20033;-85
2024/03/23 02:25:54;;;;;;;7.37;2.30;;;9.10;99.90;;;;;;4984414;28;20022;-85
2024/03/23 02:28:20;;;;;;;4.73;2.27;;;9.10;99.90;;;;;;4985572;28;20112;-85
2024/03/23 02:30:46;;;;;;;3.90;2.27;;;9.10;99.90;;;;;;4984516;28;20041;-85
2024/03/23 02:33:11;;;;;;;3.30;1.93;;;9.10;99.90;;;;;;4985156;28;20034;-85
2024/03/23 02:35:37;;;;;;;5.07;2.20;;;9.10;99.90;;;;;;4984067;28;20427;-85
2024/03/23 02:38:03;;;;;;;4.73;2.10;;;9.20;99.90;;;;;;4984617;28;20042;-85
2024/03/23 02:40:28;;;;;;;3.33;2.10;;;9.20;99.90;;;;;;4985065;28;20486;-85
2024/03/23 02:42:54;;;;;;;4.33;2.13;;;9.20;99.90;;;;;;4985279;28;20120;-85
2024/03/23 02:45:20;;;;;;;5.17;2.00;;;9.20;99.90;;;;;;4984897;28;20037;-85
2024/03/23 02:47:45;;;;;;;5.23;1.87;;;9.20;99.90;;;;;;4984640;28;20037;-85
2024/03/23 02:50:11;;;;;;;4.10;2.33;;;9.20;99.90;;;;;;4983876;28;20038;-86
2024/03/23 02:52:37;;;;;;;8.77;2.77;;;9.30;99.90;;;;;;4984185;28;20022;-86
2024/03/23 02:55:03;;;;;;;5.40;2.20;;;9.20;99.90;;;;;;4982697;28;20127;-85
2024/03/23 02:57:29;;;;;;;5.17;2.37;;;9.30;99.90;;;;;;4984727;28;20081;-85
2024/03/23 02:59:55;;;;;;;4.27;2.17;;;9.30;99.90;;;;;;4986013;28;20069;-85
2024/03/23 03:02:21;;;;;;;4.03;1.97;;;9.30;99.90;;;;;;4987479;28;20034;-85
2024/03/23 03:04:47;;;;;;;3.73;2.00;;;9.30;99.90;;;;;;4984504;28;20533;-86
2024/03/23 03:07:13;;;;;;;3.37;1.73;;;9.30;99.90;;;;;;4985207;28;21560;-85
2024/03/23 03:09:39;;;;;;;5.37;2.30;;;9.30;99.90;;;;;;4983840;28;20157;-85
2024/03/23 03:12:07;;;;;;;4.43;2.00;;;9.30;99.90;;;;;;4984590;28;20057;-85
2024/03/23 03:14:34;;;;;;;4.53;2.20;;;9.30;99.90;;;;;;4984259;28;20030;-85
2024/03/23 03:16:59;;;;;;;5.03;2.00;;;9.30;99.90;;;;;;4996828;28;20129;-85
2024/03/23 03:19:25;;;;;;;4.10;2.13;;;9.30;99.90;;;;;;4984212;28;20459;-86
2024/03/23 03:21:50;;;;;;;4.30;2.83;;;9.30;99.90;;;;;;4984255;28;20861;-85
2024/03/23 03:24:16;;;;;;;4.73;2.00;;;9.30;99.90;;;;;;4984702;28;20155;-85
2024/03/23 03:26:42;;;;;;;3.23;2.17;;;9.30;99.90;;;;;;4983642;28;20029;-85
2024/03/23 03:29:08;;;;;;;5.73;2.70;;;9.30;99.90;;;;;;4984773;28;20053;-85
2024/03/23 03:31:33;;;;;;;3.63;2.20;;;9.30;99.90;;;;;;4984598;28;20130;-85
2024/03/23 03:33:59;;;;;;;7.43;2.57;;;9.20;99.90;;;;;;4984256;28;20037;-85
2024/03/23 03:36:24;;;;;;;4.40;2.33;;;9.20;99.90;;;;;;4985083;28;20042;-85
2024/03/23 03:38:50;;;;;;;5.00;2.53;;;9.20;99.90;;;;;;4985292;28;20042;-84
2024/03/23 03:41:16;;;;;;;4.00;1.93;;;9.10;99.90;;;;;;5000785;28;20025;-86
2024/03/23 03:43:41;;;;;;;4.13;2.33;;;9.10;99.90;;;;;;4984610;28;20157;-85
2024/03/23 03:46:10;;;;;;;6.03;2.30;;;9.10;99.90;;;;;;4985468;28;20213;-85
2024/03/23 03:48:36;;;;;;;4.27;1.90;;;9.10;99.90;;;;;;4985805;28;20742;-85
2024/03/23 03:51:02;;;;;;;5.23;2.33;;;9.10;99.90;;;;;;4985635;28;20026;-85
2024/03/23 03:53:27;;;;;;;5.03;2.40;;;9.10;99.90;;;;;;4999271;28;20503;-85
2024/03/23 03:55:53;;;;;;;4.90;1.90;;;9.10;99.90;;;;;;4985378;28;20022;-85
2024/03/23 03:58:19;;;;;;;5.73;2.23;;;9.10;99.90;;;;;;4986230;28;20033;-85
2024/03/23 04:00:44;;;;;;;9.20;2.30;;;9.10;99.90;;;;;;4990418;28;20025;-85
2024/03/23 04:03:10;;;;;;;6.10;1.80;;;9.10;99.90;;;;;;4992334;28;20040;-85
2024/03/23 04:05:35;;;;;;;3.23;2.10;;;9.10;99.90;;;;;;4989061;28;20033;-85
2024/03/23 04:08:01;;;;;;;4.57;2.00;;;9.20;99.90;;;;;;4991055;28;20095;-85
2024/03/23 04:10:27;;;;;;;4.17;2.07;;;9.20;99.90;;;;;;4989272;28;20042;-85
2024/03/23 04:12:53;;;;;;;5.17;1.97;;;9.30;99.90;;;;;;4988055;28;20058;-85
2024/03/23 04:15:19;;;;;;;6.63;2.23;;;9.40;99.90;;;;;;4987648;28;20036;-86
2024/03/23 04:17:45;;;;;;;3.10;2.23;;;9.40;99.90;;;;;;4987633;28;20093;-85
2024/03/23 04:20:13;;;;;;;6.87;2.00;;;9.40;99.90;;;;;;4988385;28;20061;-85
2024/03/23 04:22:39;;;;;;;5.90;2.20;;;9.40;99.90;;;;;;4987610;28;20641;-86
2024/03/23 04:25:06;;;;;;;6.47;2.30;;;9.40;99.90;;;;;;5001663;28;20085;-86
2024/03/23 04:27:35;;;;;;;6.00;2.07;;;9.40;99.90;;;;;;4987059;28;20513;-85
2024/03/23 04:30:01;;;;;;;3.43;1.90;;;9.40;99.90;;;;;;4987653;28;20026;-85
2024/03/23 04:32:27;;;;;;;3.70;1.90;;;9.40;99.90;;;;;;4986566;28;20037;-85
2024/03/23 04:34:54;;;;;;;4.00;1.90;;;9.30;99.90;;;;;;4987354;28;20018;-85
2024/03/23 04:37:20;;;;;;;3.57;2.50;;;9.30;99.90;;;;;;4985997;28;20125;-85
2024/03/23 04:39:45;;;;;;;4.00;2.30;;;9.20;99.90;;;;;;4987894;28;20255;-85
2024/03/23 04:42:11;;;;;;;6.00;2.57;;;9.30;99.90;;;;;;4988108;28;20030;-85
2024/03/23 04:44:37;;;;;;;5.00;1.87;;;9.20;99.90;;;;;;4987363;28;20038;-85
2024/03/23 04:47:03;;;;;;;4.23;2.00;;;9.20;99.90;;;;;;4987340;28;20037;-85
2024/03/23 04:49:29;;;;;;;6.60;2.40;;;9.20;99.90;;;;;;4987270;28;20057;-85
2024/03/23 04:51:54;;;;;;;7.47;2.33;;;9.30;99.90;;;;;;4988214;28;20030;-86
2024/03/23 04:54:20;;;;;;;4.27;2.10;;;9.20;99.90;;;;;;4989050;28;20034;-86
2024/03/23 04:56:46;;;;;;;6.30;2.20;;;9.30;99.90;;;;;;4987542;28;20393;-85
2024/03/23 04:59:11;;;;;;;7.43;2.17;;;9.20;99.90;;;;;;4986492;28;21236;-86
2024/03/23 05:01:39;;;;;;;5.33;2.17;;;9.20;99.90;;;;;;4986517;28;20068;-85
2024/03/23 05:04:05;;;;;;;4.60;2.20;;;9.20;99.90;;;;;;4987910;28;20060;-85
2024/03/23 05:06:30;;;;;;;4.47;2.00;;;9.20;99.90;;;;;;4987317;28;20046;-86
2024/03/23 05:08:56;;;;;;;5.57;2.17;;;9.10;99.90;;;;;;4987143;28;20567;-85
2024/03/23 05:11:22;;;;;;;5.33;2.13;;;9.10;99.90;;;;;;4985567;28;20620;-85
2024/03/23 05:13:47;;;;;;;6.93;1.87;;;9.10;99.90;;;;;;4986611;28;21379;-86
2024/03/23 05:16:13;;;;;;;4.67;2.00;;;9.00;99.90;;;;;;4983476;28;20108;-76
2024/03/23 05:18:38;;;;;;;12.93;2.87;;;9.00;99.90;;;;;;4982371;28;20038;-83
2024/03/23 05:21:04;;;;;;;4.87;2.50;;;8.90;99.90;;;;;;4988367;28;20038;-84
2024/03/23 05:23:30;;;;;;;4.80;2.20;;;8.90;99.90;;;;;;4987816;28;20038;-84
2024/03/23 05:25:55;;;;;;;7.30;2.30;;;8.90;99.90;;;;;;4988121;28;20030;-79
2024/03/23 05:28:24;;;;;;;5.80;1.67;;;8.90;99.90;;;;;;4986330;28;20069;-84
2024/03/23 05:30:53;;;;;;;5.20;1.90;;;8.90;99.90;;;;;;4986961;28;20034;-84
2024/03/23 05:33:20;;;;;;;5.17;2.20;;;9.00;99.90;;;;;;4986797;28;20748;-84
2024/03/23 05:35:47;;;;;;;3.73;2.00;;;9.00;99.90;;;;;;4987217;28;20034;-84
2024/03/23 05:38:13;;;;;;;5.00;1.90;;;9.10;99.90;;;;;;4987351;28;20041;-84
2024/03/23 05:40:40;;;;;;;4.33;2.20;;;9.30;99.90;;;;;;4984471;28;20022;-76
2024/03/23 05:43:06;;;;;;;3.43;1.80;;;9.50;99.90;;;;;;4981453;28;20030;-75
2024/03/23 05:45:32;;;;;;;6.17;1.80;;;9.70;99.90;;;;;;4980901;28;20105;-75
2024/03/23 05:47:57;;;;;;;3.47;1.60;;;9.90;99.90;;;;;;4982221;28;20467;-76
2024/03/23 05:50:23;;;;;;;5.50;1.90;;;10.10;99.90;;;;;;4982007;28;20026;-75
2024/03/23 05:52:49;;;;;;;6.47;1.70;;;10.20;99.90;;;;;;4985081;28;20037;-83
2024/03/23 05:55:15;;;;;;;2.33;1.67;;;10.30;99.90;;;;;;4986199;28;20032;-84
2024/03/23 05:57:41;;;;;;;3.80;1.60;;;10.40;99.90;;;;;;4986489;28;20070;-84
2024/03/23 06:00:15;;;;;;;3.97;1.87;;;10.50;99.90;;;;;;4986332;28;20045;-84
2024/03/23 06:02:44;;;;;;;9.60;1.80;;;10.60;99.90;;;;;;4986234;28;20037;-85
2024/03/23 06:05:13;;;;;;;3.10;1.50;;;10.80;99.90;;;;;;4985980;28;20039;-84
2024/03/23 06:07:38;;;;;;;4.40;2.13;;;10.90;99.90;;;;;;4983719;28;20030;-84
2024/03/23 06:10:05;;;;;;;4.40;1.63;;;11.00;99.90;;;;;;4984749;28;20034;-84
2024/03/23 06:12:31;;;;;;;4.50;1.60;;;11.10;99.90;;;;;;4985713;28;20294;-84
2024/03/23 06:14:57;;;;;;;2.47;1.60;;;11.20;99.90;;;;;;4993369;28;20030;-84
2024/03/23 06:17:23;;;;;;;5.40;1.70;;;11.30;99.90;;;;;;4985157;28;20093;-84
2024/03/23 06:19:49;;;;;;;2.87;1.60;;;11.40;99.90;;;;;;4985785;28;20034;-84
2024/03/23 06:22:14;;;;;;;5.17;1.73;;;11.60;99.90;;;;;;4985647;28;20034;-84
2024/03/23 06:24:40;;;;;;;3.00;1.70;;;11.60;99.90;;;;;;4986272;28;20447;-84
2024/03/23 06:27:05;;;;;;;3.17;1.73;;;11.70;99.90;;;;;;4986099;28;20024;-84
2024/03/23 06:29:32;;;;;;;4.13;1.75;;;11.80;99.90;;;;;;4985270;28;20034;-84
2024/03/23 06:31:57;;;;;;;3.70;1.45;;;11.80;99.90;;;;;;5001159;28;20714;-84
2024/03/23 06:34:23;;;;;;;3.55;1.50;;;11.90;99.90;;;;;;4985840;28;20037;-84
2024/03/23 06:36:49;;;;;;;3.75;1.73;;;11.90;99.90;;;;;;4985724;28;20053;-84
2024/03/23 06:39:15;;;;;;;3.83;1.63;;;12.00;99.90;;;;;;4985787;28;20037;-84
2024/03/23 06:41:53;;;;;;;3.00;1.50;;;12.00;99.90;;;;;;4985991;28;20054;-84
2024/03/23 06:44:20;;;;;;;4.95;1.60;;;12.20;99.90;;;;;;4984173;28;20045;-84
2024/03/23 06:46:46;;;;;;;3.25;1.48;;;12.20;99.90;;;;;;4983425;28;20069;-84
2024/03/23 06:49:12;;;;;;;4.22;1.80;;;12.30;99.90;;;;;;4998117;28;20165;-84
2024/03/23 06:51:37;;;;;;;5.07;1.92;;;12.40;99.90;;;;;;4983962;28;20034;-84
2024/03/23 06:54:04;;;;;;;4.18;1.85;;;12.50;99.90;;;;;;4987626;28;20034;-84
2024/03/23 06:56:29;;;;;;;5.07;1.75;;;12.60;99.90;;;;;;4986297;28;20034;-84
2024/03/23 06:58:56;;;;;;;3.22;1.90;;;12.80;99.90;;;;;;4988578;28;21769;-84
2024/03/23 07:01:21;;;;;;;3.83;1.85;;;13.00;99.90;;;;;;4988298;28;20035;-79
2024/03/23 07:03:47;;;;;;;4.68;1.60;;;13.10;99.90;;;;;;4988001;28;20041;-84
2024/03/23 07:06:12;;;;;;;4.47;1.92;;;13.20;99.90;;;;;;4987493;28;20029;-84
2024/03/23 07:08:38;;;;;;;4.97;2.20;;;13.40;99.90;;;;;;4988317;28;20490;-84
2024/03/23 07:11:04;;;;;;;5.88;1.92;;;13.50;99.90;;;;;;5007762;28;21040;-84
2024/03/23 07:13:30;;;;;;;3.42;2.03;;;13.60;99.90;;;;;;4992451;28;20037;-84
2024/03/23 07:15:56;;;;;;;3.67;1.55;;;13.60;99.90;;;;;;4986421;28;20153;-85
2024/03/23 07:18:21;;;;;;;5.78;2.05;;;13.70;99.90;;;;;;4986671;28;20073;-85
2024/03/23 07:20:57;;;;;;;2.90;1.77;;;13.70;99.90;;;;;;4990286;28;20026;-84
2024/03/23 07:23:26;;;;;;;7.15;2.00;;;13.70;99.90;;;;;;5005659;28;20044;-85
2024/03/23 07:26:02;;;;;;;4.93;2.20;;;13.70;99.90;;;;;;4990328;28;20454;-84
2024/03/23 07:28:31;;;;;;;4.28;2.25;;;13.80;99.90;;;;;;4993064;28;20390;-84
2024/03/23 07:31:09;;;;;;;4.15;2.03;;;13.80;99.90;;;;;;4989700;28;20494;-84
2024/03/23 07:33:46;;;;;;;5.20;2.50;;;13.80;99.90;;;;;;4984592;28;20022;-83
2024/03/23 07:36:11;;;;;;;3.38;1.85;;;13.50;99.90;;;;;;4989792;28;20033;-85
2024/03/23 07:38:39;;;;;;;4.03;2.10;;;13.30;99.90;;;;;;4988510;28;20152;-86
2024/03/23 07:41:09;;;;;;;7.70;1.80;;;12.90;99.90;;;;;;4990272;28;21093;-86
2024/03/23 07:43:36;;;;;;;4.18;2.15;;;12.60;99.90;;;;;;4986834;28;20026;-86
2024/03/23 07:46:03;;;;;;;3.95;2.03;;;12.30;99.90;;;;;;4985686;28;20109;-85
2024/03/23 07:48:30;;;;;;;4.75;2.45;;;12.10;99.90;;;;;;5000155;28;20030;-85
2024/03/23 07:51:04;;;;;;;5.07;2.22;;;11.80;99.90;;;;;;4984714;28;20034;-85
2024/03/23 07:53:30;;;;;;;3.55;2.05;;;11.60;99.90;;;;;;5005356;28;20038;-89
2024/03/23 07:56:10;;;;;;;5.25;2.10;;;11.40;99.90;;;;;;4990121;28;20030;-88
2024/03/23 07:58:36;;;;;;;3.07;2.13;;;11.30;99.90;;;;;;4986421;28;20041;-89
2024/03/23 08:01:10;;;;;;;6.40;2.40;;;11.20;99.90;;;;;;5001032;28;20074;-89
2024/03/23 08:03:36;;;;;;;3.17;2.23;;;11.10;99.90;;;;;;4985909;28;20042;-89
2024/03/23 08:06:13;;;;;;;3.30;2.30;;;11.00;99.90;;;;;;4993113;28;20118;-89
2024/03/23 08:08:40;;;;;;;5.13;2.27;;;11.00;99.90;;;;;;4992648;28;20507;-90
2024/03/23 08:11:06;;;;;;;6.23;2.50;;;10.90;99.90;;;;;;4982225;28;20053;-87
2024/03/23 08:13:32;;;;;;;5.30;2.40;;;10.70;99.90;;;;;;4981822;28;20046;-89
2024/03/23 08:15:59;;;;;;;7.50;3.10;;;10.70;99.90;;;;;;4975871;28;20037;-86
2024/03/23 08:18:24;;;;;;;5.60;2.90;;;10.60;99.90;;;;;;4978786;28;20042;-88
2024/03/23 08:21:00;;;;;;;4.67;2.53;;;10.50;99.90;;;;;;4980146;28;20034;-88
2024/03/23 08:23:28;;;;;;;5.23;2.63;;;10.30;99.90;;;;;;4979617;28;20023;-88
2024/03/23 08:26:01;;;;;;;3.07;2.13;;;10.10;99.90;;;;;;4993905;28;20117;-88
2024/03/23 08:28:27;;;;;;;5.03;2.40;;;9.90;99.90;;;;;;4978580;28;20154;-88
2024/03/23 08:30:54;;;;;;;2.67;2.00;;;9.70;99.90;;;;;;4976022;28;21373;-88
2024/03/23 08:33:20;;;;;;;3.57;2.40;;;9.40;99.90;;;;;;4979137;28;20033;-89
2024/03/23 08:35:57;;;;;;;4.57;2.30;;;9.40;99.90;;;;;;4980699;28;20034;-89
2024/03/23 08:38:27;;;;;;;3.50;2.47;;;9.20;99.90;;;;;;4981195;28;20727;-88
2024/03/23 08:40:59;;;;;;;3.43;2.53;;;9.10;99.90;;;;;;4981849;28;20474;-88
2024/03/23 08:43:25;;;;;;;4.63;2.63;;;9.10;99.90;;;;;;4981630;28;20053;-88
2024/03/23 08:45:51;;;;;;;3.67;2.50;;;9.00;99.90;;;;;;4997663;28;20271;-88
2024/03/23 08:48:18;;;;;;;2.80;2.20;;;9.00;99.90;;;;;;4984698;28;20018;-88
2024/03/23 08:50:43;;;;;;;4.57;2.53;;;9.00;99.90;;;;;;4985432;28;20038;-87
2024/03/23 08:53:09;;;;;;;4.47;2.40;;;8.90;99.90;;;;;;4985133;28;20042;-88
2024/03/23 08:55:35;;;;;;;3.47;2.30;;;8.90;99.90;;;;;;4984786;28;20117;-88
2024/03/23 08:58:01;;;;;;;3.07;2.30;;;8.80;99.90;;;;;;4984996;28;20038;-88
2024/03/23 09:00:26;;;;;;;3.77;2.93;;;8.80;99.90;;;;;;4984263;28;20029;-88
2024/03/23 09:02:53;;;;;;;5.27;3.27;;;8.80;99.90;;;;;;4984149;28;20073;-88
2024/03/23 09:05:19;;;;;;;4.10;2.87;;;8.70;99.90;;;;;;4984716;28;20034;-88
2024/03/23 09:07:44;;;;;;;4.37;3.17;;;8.70;99.90;;;;;;4984006;28;20042;-88
2024/03/23 09:10:10;;;;;;;4.90;3.00;;;8.70;99.90;;;;;;4986064;28;20030;-88
2024/03/23 09:12:35;;;;;;;5.23;3.33;;;8.70;99.90;;;;;;4985629;28;20030;-88
2024/03/23 09:15:01;;;;;;;4.10;3.20;;;8.70;99.90;;;;;;4984746;28;20096;-88
2024/03/23 09:17:26;;;;;;;5.97;2.93;;;8.70;99.90;;;;;;5000571;28;20073;-88
2024/03/23 09:19:52;;;;;;;6.63;3.60;;;8.70;99.90;;;;;;4986970;28;20029;-88
2024/03/23 09:22:17;;;;;;;4.97;3.10;;;8.70;99.90;;;;;;5001636;28;20140;-88
2024/03/23 09:24:43;;;;;;;6.30;3.20;;;8.70;99.90;;;;;;4986383;28;20030;-89
2024/03/23 09:27:08;;;;;;;4.53;3.23;;;8.70;99.90;;;;;;4985227;28;20030;-88
2024/03/23 09:29:34;;;;;;;3.33;2.60;;;8.70;99.90;;;;;;4984023;28;20034;-88
2024/03/23 09:31:59;;;;;;;3.10;2.43;;;8.70;99.90;;;;;;4983346;28;20034;-88
2024/03/23 09:34:25;;;;;;;3.57;2.33;;;8.70;99.90;;;;;;4985044;28;20030;-88
2024/03/23 09:36:52;;;;;;;3.13;2.00;;;8.60;99.90;;;;;;4998428;28;20019;-89
2024/03/23 09:39:18;;;;;;;3.50;1.70;;;8.60;99.90;;;;;;4984320;28;20046;-87
2024/03/23 09:41:43;;;;;;;3.00;2.10;;;8.50;99.90;;;;;;4983576;28;20034;-88
2024/03/23 09:44:09;;;;;;;2.93;2.07;;;8.40;99.90;;;;;;4985296;28;20096;-88
2024/03/23 09:46:36;;;;;;;3.57;2.30;;;8.40;99.90;;;;;;4984111;28;21348;-88
2024/03/23 09:49:05;;;;;;;3.20;2.10;;;8.50;99.90;;;;;;4984687;28;20030;-87
2024/03/23 09:51:31;;;;;;;4.47;2.00;;;8.40;99.90;;;;;;4983928;28;20027;-88
2024/03/23 09:53:57;;;;;;;3.60;2.23;;;8.40;99.90;;;;;;4983960;28;20041;-87
2024/03/23 09:56:23;;;;;;;3.00;1.60;;;8.30;99.90;;;;;;4983359;28;20046;-88
2024/03/23 09:58:49;;;;;;;2.30;1.67;;;8.40;99.90;;;;;;4984487;28;20042;-87
2024/03/23 10:01:15;;;;;;;2.70;1.30;;;8.50;99.90;;;;;;4985005;28;20054;-88
2024/03/23 10:03:46;;;;;;;1.90;1.30;;;8.40;99.90;;;;;;4988355;28;20026;-86
2024/03/23 10:06:12;;;;;;;2.53;1.40;;;8.30;99.90;;;;;;4995143;28;20031;-87
2024/03/23 10:08:38;;;;;;;2.77;1.30;;;8.20;99.90;;;;;;4994569;28;20041;-87
2024/03/23 10:11:16;;;;;;;1.67;1.20;;;8.20;99.90;;;;;;4995449;28;20026;-88
2024/03/23 10:13:43;;;;;;;2.20;1.50;;;8.10;99.90;;;;;;4993520;28;20054;-87
2024/03/23 10:16:10;;;;;;;3.10;2.03;;;8.10;99.90;;;;;;4992714;28;20386;-87
2024/03/23 10:18:41;;;;;;;3.60;1.40;;;8.10;99.90;;;;;;4993906;28;20042;-88
2024/03/23 10:21:11;;;;;;;2.00;1.43;;;8.00;99.90;;;;;;4993588;28;20026;-87
2024/03/23 10:23:41;;;;;;;2.30;1.50;;;8.00;99.90;;;;;;4993286;28;20030;-88
2024/03/23 10:26:26;;;;;;;4.63;1.80;;;8.00;99.90;;;;;;4994267;28;20057;-88
2024/03/23 10:28:58;;;;;;;2.40;1.35;;;8.00;99.90;;;;;;4997520;28;20034;-88
2024/03/23 10:31:23;;;;;;;3.00;1.93;;;8.00;99.90;;;;;;4994475;28;20411;-88
2024/03/23 10:33:49;;;;;;;2.10;1.17;;;8.00;99.90;;;;;;4991168;28;20015;-87
2024/03/23 10:36:15;;;;;;;1.30;1.10;;;8.10;99.90;;;;;;4991137;28;20058;-87
2024/03/23 10:38:42;;;;;;;1.60;1.00;;;8.10;99.90;;;;;;4992324;28;20034;-87
2024/03/23 10:41:11;;;;;;;2.00;1.00;;;8.30;99.90;;;;;;4994603;28;20034;-87
2024/03/23 10:43:37;;;;;;;1.40;0.97;;;8.20;99.90;;;;;;4992522;28;20029;-87
2024/03/23 10:46:04;;;;;;;1.10;1.00;;;8.10;99.90;;;;;;4992864;28;20034;-87
2024/03/23 10:48:33;;;;;;;1.33;0.90;;;8.10;99.90;;;;;;4992489;28;20026;-87
2024/03/23 10:50:59;;;;;;;1.50;0.70;;;8.10;99.90;;;;;;4992488;28;20056;-87
2024/03/23 10:53:28;;;;;;;1.10;0.83;;;8.20;99.90;;;;;;4991602;28;20026;-87
2024/03/23 10:55:55;;;;;;;4.03;1.50;;;8.20;99.90;;;;;;4989624;28;20896;-87
2024/03/23 10:58:33;;;;;;;3.33;0.90;;;8.20;99.90;;;;;;4994390;28;20683;-87
2024/03/23 11:00:59;;;;;;;1.83;0.97;;;8.20;99.90;;;;;;4992265;28;20026;-86
2024/03/23 11:03:34;;;;;;;1.73;0.80;;;8.20;99.90;;;;;;4995356;28;20125;-87
2024/03/23 11:06:01;;;;;;;2.10;1.07;;;8.20;99.90;;;;;;4994010;28;20442;-86
2024/03/23 11:08:30;;;;;;;2.63;1.00;;;8.30;99.90;;;;;;4993287;28;20062;-86
2024/03/23 11:11:33;;;;;;;1.90;1.10;;;8.20;99.90;;;;;;4995695;28;20030;-86
2024/03/23 11:13:59;;;;;;;1.57;0.90;;;8.30;99.90;;;;;;4978546;28;20148;-86
2024/03/23 11:16:35;;;;;;;3.33;1.20;;;8.20;99.90;;;;;;4991379;28;20047;-86
2024/03/23 11:19:38;;;;;;;1.57;1.00;;;8.30;99.90;;;;;;4994426;28;20041;-86
2024/03/23 11:22:05;;;;;;;2.57;1.10;;;8.30;99.90;;;;;;4990157;28;20036;-86
2024/03/23 11:24:32;;;;;;;1.70;1.13;;;8.30;99.90;;;;;;4990972;28;20026;-87
2024/03/23 11:27:03;;;;;;;2.00;1.20;;;8.30;99.90;;;;;;4989295;28;20030;-87
2024/03/23 11:29:31;;;;;;;2.23;1.20;;;8.30;99.90;;;;;;4987092;28;20030;-86
2024/03/23 11:31:58;;;;;;;5.23;1.07;;;8.40;99.90;;;;;;4992898;28;20022;-87
2024/03/23 11:34:23;;;;;;;2.97;1.10;;;8.40;99.90;;;;;;5001875;28;20027;-87
2024/03/23 11:36:50;;;;;;;1.87;1.30;;;8.50;99.90;;;;;;4997774;28;20030;-85
2024/03/23 11:39:20;;;;;;;1.53;1.10;;;8.50;99.90;;;;;;4996219;28;20097;-85
2024/03/23 11:41:49;;;;;;;2.23;1.10;;;8.50;99.90;;;;;;4995303;28;20042;-85
2024/03/23 11:44:25;;;;;;;2.30;1.30;;;8.60;99.90;;;;;;4993899;28;20045;-85
2024/03/23 11:46:52;;;;;;;3.87;1.40;;;8.60;99.90;;;;;;4991737;28;20030;-85
2024/03/23 11:49:24;;;;;;;3.10;1.30;;;8.80;99.90;;;;;;4994943;28;20659;-86
2024/03/23 11:51:51;;;;;;;2.03;1.20;;;8.80;99.90;;;;;;4994917;28;20061;-86
2024/03/23 11:54:19;;;;;;;4.97;1.43;;;8.80;99.90;;;;;;4995226;28;20038;-86
2024/03/23 11:57:00;;;;;;;5.47;1.70;;;8.80;99.90;;;;;;4994026;28;20034;-86
2024/03/23 11:59:35;;;;;;;2.57;1.50;;;8.70;99.90;;;;;;4994520;28;20035;-85
2024/03/23 12:02:05;;;;;;;;;;;8.60;99.90;;;;;;4994631;28;20015;-85
2024/03/23 12:04:31;;;;;;;4.40;1.70;;;8.50;99.90;;;;;;4994591;28;19914;-86
2024/03/23 12:07:18;;;;;;;3.77;1.70;;;8.60;99.90;;;;;;4990712;28;20118;-86
2024/03/23 12:09:47;;;;;;;3.80;1.67;;;8.50;99.90;;;;;;4989105;28;20031;-85
2024/03/23 12:12:17;;;;;;;4.83;2.10;;;8.50;99.90;;;;;;5002036;28;20027;-84
2024/03/23 12:14:43;;;;;;;3.63;1.60;;;8.50;99.90;;;;;;4989167;28;20030;-85
2024/03/23 12:17:10;;;;;;;6.03;2.13;;;8.60;99.90;;;;;;4985811;28;20034;-86
2024/03/23 12:19:36;;;;;;;3.10;1.80;;;8.70;99.90;;;;;;4990138;28;20062;-85
2024/03/23 12:22:03;;;;;;;8.03;2.10;;;8.80;99.90;;;;;;4993932;28;20451;-86
2024/03/23 12:24:29;;;;;;;4.63;1.70;;;8.80;99.90;;;;;;4993467;28;20046;-86
2024/03/23 12:26:59;;;;;;;5.07;2.17;;;8.80;99.90;;;;;;4993423;28;20030;-86
2024/03/23 12:29:27;;;;;;;5.27;1.80;;;8.70;99.90;;;;;;4994298;28;20049;-86
2024/03/23 12:31:53;;;;;;;5.03;1.97;;;8.60;99.90;;;;;;4994260;28;20108;-87
2024/03/23 12:34:18;;;;;;;3.60;1.87;;;8.50;99.90;;;;;;4994770;28;20727;-86
2024/03/23 12:36:44;;;;;;;5.57;2.00;;;8.60;99.90;;;;;;4993098;28;20393;-89
2024/03/23 12:39:09;;;;;;;3.80;1.80;;;8.60;99.90;;;;;;4993335;28;20045;-90
2024/03/23 12:41:35;;;;;;;4.00;1.90;;;8.60;99.90;;;;;;4998491;28;20030;-88
2024/03/23 12:44:00;;;;;;;4.40;1.77;;;8.70;99.90;;;;;;5000741;28;20032;-90
2024/03/23 12:46:26;;;;;;;6.53;2.10;;;8.70;99.90;;;;;;5001375;28;20030;-87
2024/03/23 12:48:51;;;;;;;7.37;2.00;;;8.70;99.90;;;;;;5000504;28;20032;-87
2024/03/23 12:51:17;;;;;;;4.27;2.30;;;8.60;99.90;;;;;;4996665;28;20033;-89
2024/03/23 12:53:43;;;;;;;6.13;2.30;;;8.60;99.90;;;;;;4996557;28;20488;-87
2024/03/23 12:56:12;;;;;;;2.83;1.93;;;8.70;99.90;;;;;;4996600;28;20109;-87